sensor_id;sensor_type;location;lat;lon;timestamp;pressure;altitude;pressure_sealevel;temperature;humidity
49072;BME280;52656;52.610;10.236;2023-02-28T00:00:24;102725.41;;;-3.00;75.35
49072;BME280;52656;52.610;10.236;2023-02-28T00:02:50;102729.38;;;-3.08;76.23
49072;BME280;52656;52.610;10.236;2023-02-28T00:05:18;102726.69;;;-3.10;75.82
49072;BME280;52656;52.610;10.236;2023-02-28T00:07:44;102732.69;;;-3.11;75.83
49072;BME280;52656;52.610;10.236;2023-02-28T00:10:12;102732.03;;;-3.07;75.36
49072;BME280;52656;52.610;10.236;2023-02-28T00:12:38;102727.00;;;-3.04;74.81
49072;BME280;52656;52.610;10.236;2023-02-28T00:15:10;102726.03;;;-3.06;74.89
49072;BME280;52656;52.610;10.236;2023-02-28T00:17:37;102723.53;;;-3.04;74.09
49072;BME280;52656;52.610;10.236;2023-02-28T00:20:04;102722.50;;;-3.08;74.47
49072;BME280;52656;52.610;10.236;2023-02-28T00:22:33;102720.03;;;-3.05;74.41
49072;BME280;52656;52.610;10.236;2023-02-28T00:24:58;102721.38;;;-3.13;74.70
49072;BME280;52656;52.610;10.236;2023-02-28T00:27:24;102718.63;;;-3.16;75.58
49072;BME280;52656;52.610;10.236;2023-02-28T00:29:49;102722.88;;;-3.18;75.37
49072;BME280;52656;52.610;10.236;2023-02-28T00:32:14;102724.47;;;-3.20;75.53
49072;BME280;52656;52.610;10.236;2023-02-28T00:34:40;102722.66;;;-3.22;75.80
49072;BME280;52656;52.610;10.236;2023-02-28T00:37:06;102724.19;;;-3.26;75.70
49072;BME280;52656;52.610;10.236;2023-02-28T00:39:36;102718.84;;;-3.29;75.43
49072;BME280;52656;52.610;10.236;2023-02-28T00:42:02;102721.38;;;-3.31;74.95
49072;BME280;52656;52.610;10.236;2023-02-28T00:44:28;102727.38;;;-3.32;75.09
49072;BME280;52656;52.610;10.236;2023-02-28T00:46:54;102722.03;;;-3.35;75.49
49072;BME280;52656;52.610;10.236;2023-02-28T00:49:20;102720.84;;;-3.41;74.96
49072;BME280;52656;52.610;10.236;2023-02-28T00:51:46;102724.69;;;-3.51;75.97
49072;BME280;52656;52.610;10.236;2023-02-28T00:54:11;102722.69;;;-3.57;76.34
49072;BME280;52656;52.610;10.236;2023-02-28T00:56:37;102730.72;;;-3.68;77.57
49072;BME280;52656;52.610;10.236;2023-02-28T00:59:02;102725.47;;;-3.70;77.48
49072;BME280;52656;52.610;10.236;2023-02-28T01:01:27;102725.75;;;-3.64;75.06
49072;BME280;52656;52.610;10.236;2023-02-28T01:03:53;102726.69;;;-3.63;74.64
49072;BME280;52656;52.610;10.236;2023-02-28T01:06:18;102720.44;;;-3.67;75.77
49072;BME280;52656;52.610;10.236;2023-02-28T01:08:43;102726.69;;;-3.63;74.74
49072;BME280;52656;52.610;10.236;2023-02-28T01:11:11;102733.59;;;-3.80;77.13
49072;BME280;52656;52.610;10.236;2023-02-28T01:13:36;102729.41;;;-3.94;79.03
49072;BME280;52656;52.610;10.236;2023-02-28T01:16:02;102729.13;;;-3.83;76.38
49072;BME280;52656;52.610;10.236;2023-02-28T01:18:27;102728.19;;;-3.85;76.93
49072;BME280;52656;52.610;10.236;2023-02-28T01:20:53;102729.06;;;-3.84;77.09
49072;BME280;52656;52.610;10.236;2023-02-28T01:23:21;102726.41;;;-3.86;77.02
49072;BME280;52656;52.610;10.236;2023-02-28T01:25:48;102729.13;;;-3.83;76.52
49072;BME280;52656;52.610;10.236;2023-02-28T01:28:14;102733.28;;;-3.86;77.36
49072;BME280;52656;52.610;10.236;2023-02-28T01:30:39;102736.53;;;-3.90;77.74
49072;BME280;52656;52.610;10.236;2023-02-28T01:33:05;102731.19;;;-3.93;77.61
49072;BME280;52656;52.610;10.236;2023-02-28T01:35:34;102742.19;;;-3.97;77.72
49072;BME280;52656;52.610;10.236;2023-02-28T01:38:01;102727.63;;;-3.95;76.16
49072;BME280;52656;52.610;10.236;2023-02-28T01:40:26;102732.97;;;-3.92;74.93
49072;BME280;52656;52.610;10.236;2023-02-28T01:42:51;102733.84;;;-3.92;75.31
49072;BME280;52656;52.610;10.236;2023-02-28T01:45:27;102728.28;;;-3.99;75.93
49072;BME280;52656;52.610;10.236;2023-02-28T01:47:56;102733.00;;;-4.09;77.57
49072;BME280;52656;52.610;10.236;2023-02-28T01:50:25;102733.78;;;-4.10;77.46
49072;BME280;52656;52.610;10.236;2023-02-28T01:52:54;102733.78;;;-4.10;76.95
49072;BME280;52656;52.610;10.236;2023-02-28T01:55:22;102734.78;;;-4.08;76.46
49072;BME280;52656;52.610;10.236;2023-02-28T01:57:52;102728.72;;;-4.08;75.97
49072;BME280;52656;52.610;10.236;2023-02-28T02:00:23;102735.47;;;-4.10;76.05
49072;BME280;52656;52.610;10.236;2023-02-28T02:02:51;102734.44;;;-4.14;76.40
49072;BME280;52656;52.610;10.236;2023-02-28T02:05:23;102728.22;;;-4.17;76.38
49072;BME280;52656;52.610;10.236;2023-02-28T02:07:52;102720.38;;;-4.19;76.97
49072;BME280;52656;52.610;10.236;2023-02-28T02:10:39;102726.94;;;-4.25;77.01
49072;BME280;52656;52.610;10.236;2023-02-28T02:24:32;102704.75;;;-4.37;76.76
49072;BME280;52656;52.610;10.236;2023-02-28T02:30:19;102713.16;;;-4.41;78.48
49072;BME280;52656;52.610;10.236;2023-02-28T02:38:32;102723.28;;;-4.45;79.62
49072;BME280;52656;52.610;10.236;2023-02-28T02:43:48;102711.63;;;-4.37;80.37
49072;BME280;52656;52.610;10.236;2023-02-28T02:46:37;102710.09;;;-4.34;78.13
49072;BME280;52656;52.610;10.236;2023-02-28T02:49:08;102715.47;;;-4.31;77.87
49072;BME280;52656;52.610;10.236;2023-02-28T02:51:35;102720.00;;;-4.26;77.55
49072;BME280;52656;52.610;10.236;2023-02-28T02:54:11;102715.69;;;-4.26;78.20
49072;BME280;52656;52.610;10.236;2023-02-28T02:56:42;102714.94;;;-4.23;76.82
49072;BME280;52656;52.610;10.236;2023-02-28T02:59:11;102712.28;;;-4.25;75.89
49072;BME280;52656;52.610;10.236;2023-02-28T03:01:39;102715.59;;;-4.27;76.92
49072;BME280;52656;52.610;10.236;2023-02-28T03:04:13;102725.00;;;-4.30;77.17
49072;BME280;52656;52.610;10.236;2023-02-28T03:06:41;102729.59;;;-4.40;76.59
49072;BME280;52656;52.610;10.236;2023-02-28T03:09:06;102722.81;;;-4.38;75.25
49072;BME280;52656;52.610;10.236;2023-02-28T03:11:32;102720.22;;;-4.38;76.79
49072;BME280;52656;52.610;10.236;2023-02-28T03:25:08;102716.56;;;-4.42;76.26
49072;BME280;52656;52.610;10.236;2023-02-28T03:27:42;102707.09;;;-4.41;75.62
49072;BME280;52656;52.610;10.236;2023-02-28T03:30:35;102705.41;;;-4.41;75.22
49072;BME280;52656;52.610;10.236;2023-02-28T03:33:09;102709.56;;;-4.44;75.69
49072;BME280;52656;52.610;10.236;2023-02-28T03:35:41;102712.13;;;-4.44;75.29
49072;BME280;52656;52.610;10.236;2023-02-28T03:41:00;102712.78;;;-4.48;76.50
49072;BME280;52656;52.610;10.236;2023-02-28T03:43:30;102717.97;;;-4.48;76.40
49072;BME280;52656;52.610;10.236;2023-02-28T03:46:00;102704.84;;;-4.51;75.96
49072;BME280;52656;52.610;10.236;2023-02-28T03:48:38;102709.06;;;-4.53;75.12
49072;BME280;52656;52.610;10.236;2023-02-28T03:51:08;102710.59;;;-4.57;76.16
49072;BME280;52656;52.610;10.236;2023-02-28T03:53:39;102713.47;;;-4.84;76.63
49072;BME280;52656;52.610;10.236;2023-02-28T03:56:13;102717.44;;;-4.74;75.01
49072;BME280;52656;52.610;10.236;2023-02-28T03:58:42;102719.31;;;-4.71;75.54
49072;BME280;52656;52.610;10.236;2023-02-28T04:01:20;102718.50;;;-4.70;75.82
49072;BME280;52656;52.610;10.236;2023-02-28T04:03:46;102719.38;;;-4.70;76.17
49072;BME280;52656;52.610;10.236;2023-02-28T04:06:18;102713.78;;;-4.77;76.27
49072;BME280;52656;52.610;10.236;2023-02-28T04:08:43;102719.94;;;-4.75;76.84
49072;BME280;52656;52.610;10.236;2023-02-28T04:11:24;102718.41;;;-4.72;75.87
49072;BME280;52656;52.610;10.236;2023-02-28T04:13:52;102723.03;;;-4.66;75.41
49072;BME280;52656;52.610;10.236;2023-02-28T04:16:17;102726.31;;;-4.69;75.81
49072;BME280;52656;52.610;10.236;2023-02-28T04:18:42;102720.13;;;-4.72;76.19
49072;BME280;52656;52.610;10.236;2023-02-28T04:21:09;102724.22;;;-4.76;76.72
49072;BME280;52656;52.610;10.236;2023-02-28T04:23:34;102723.38;;;-4.91;78.28
49072;BME280;52656;52.610;10.236;2023-02-28T04:26:00;102728.97;;;-4.84;77.07
49072;BME280;52656;52.610;10.236;2023-02-28T04:28:25;102724.44;;;-4.88;77.42
49072;BME280;52656;52.610;10.236;2023-02-28T04:31:02;102731.31;;;-4.88;76.69
49072;BME280;52656;52.610;10.236;2023-02-28T04:33:29;102733.00;;;-4.89;76.71
49072;BME280;52656;52.610;10.236;2023-02-28T04:36:02;102737.28;;;-4.89;76.95
49072;BME280;52656;52.610;10.236;2023-02-28T04:38:30;102731.06;;;-4.93;77.02
49072;BME280;52656;52.610;10.236;2023-02-28T04:40:58;102730.97;;;-4.94;77.23
49072;BME280;52656;52.610;10.236;2023-02-28T04:43:23;102738.72;;;-4.94;76.17
49072;BME280;52656;52.610;10.236;2023-02-28T04:45:49;102730.97;;;-4.94;76.39
49072;BME280;52656;52.610;10.236;2023-02-28T04:48:14;102732.75;;;-4.93;76.15
49072;BME280;52656;52.610;10.236;2023-02-28T04:50:40;102739.50;;;-4.95;76.29
49072;BME280;52656;52.610;10.236;2023-02-28T04:53:05;102731.59;;;-4.98;76.40
49072;BME280;52656;52.610;10.236;2023-02-28T04:55:30;102741.13;;;-4.97;74.78
49072;BME280;52656;52.610;10.236;2023-02-28T04:57:55;102731.44;;;-5.01;75.87
49072;BME280;52656;52.610;10.236;2023-02-28T05:00:21;102734.75;;;-5.04;75.81
49072;BME280;52656;52.610;10.236;2023-02-28T05:02:46;102732.94;;;-5.05;75.40
49072;BME280;52656;52.610;10.236;2023-02-28T05:05:11;102731.09;;;-5.08;76.08
49072;BME280;52656;52.610;10.236;2023-02-28T05:07:41;102738.22;;;-5.18;76.21
49072;BME280;52656;52.610;10.236;2023-02-28T05:10:07;102734.69;;;-5.20;75.97
49072;BME280;52656;52.610;10.236;2023-02-28T05:12:32;102741.63;;;-5.19;75.85
49072;BME280;52656;52.610;10.236;2023-02-28T05:14:58;102739.91;;;-5.19;76.30
49072;BME280;52656;52.610;10.236;2023-02-28T05:17:23;102734.69;;;-5.20;76.08
49072;BME280;52656;52.610;10.236;2023-02-28T05:19:48;102737.19;;;-5.22;75.77
49072;BME280;52656;52.610;10.236;2023-02-28T05:22:14;102734.59;;;-5.22;76.41
49072;BME280;52656;52.610;10.236;2023-02-28T05:24:41;102741.28;;;-5.25;76.53
49072;BME280;52656;52.610;10.236;2023-02-28T05:27:07;102731.66;;;-5.28;76.29
49072;BME280;52656;52.610;10.236;2023-02-28T05:29:33;102737.69;;;-5.27;76.51
49072;BME280;52656;52.610;10.236;2023-02-28T05:31:59;102735.03;;;-5.29;76.44
49072;BME280;52656;52.610;10.236;2023-02-28T05:34:24;102747.06;;;-5.29;75.92
49072;BME280;52656;52.610;10.236;2023-02-28T05:36:49;102744.31;;;-5.33;76.46
49072;BME280;52656;52.610;10.236;2023-02-28T05:39:15;102748.59;;;-5.33;76.29
49072;BME280;52656;52.610;10.236;2023-02-28T05:41:41;102742.59;;;-5.32;76.51
49072;BME280;52656;52.610;10.236;2023-02-28T05:44:07;102746.00;;;-5.33;76.51
49072;BME280;52656;52.610;10.236;2023-02-28T05:46:32;102746.81;;;-5.34;76.32
49072;BME280;52656;52.610;10.236;2023-02-28T05:48:58;102748.31;;;-5.38;76.08
49072;BME280;52656;52.610;10.236;2023-02-28T05:51:25;102745.66;;;-5.39;75.73
49072;BME280;52656;52.610;10.236;2023-02-28T05:53:50;102751.63;;;-5.40;76.06
49072;BME280;52656;52.610;10.236;2023-02-28T05:56:16;102745.56;;;-5.41;76.54
49072;BME280;52656;52.610;10.236;2023-02-28T05:58:41;102745.66;;;-5.39;76.00
49072;BME280;52656;52.610;10.236;2023-02-28T06:01:31;102752.34;;;-5.43;76.14
49072;BME280;52656;52.610;10.236;2023-02-28T06:03:56;102748.88;;;-5.43;76.61
49072;BME280;52656;52.610;10.236;2023-02-28T06:06:21;102754.03;;;-5.43;75.49
49072;BME280;52656;52.610;10.236;2023-02-28T06:08:47;102752.41;;;-5.41;75.25
49072;BME280;52656;52.610;10.236;2023-02-28T06:11:12;102749.06;;;-5.40;75.82
49072;BME280;52656;52.610;10.236;2023-02-28T06:13:38;102752.59;;;-5.38;76.27
49072;BME280;52656;52.610;10.236;2023-02-28T06:16:04;102758.66;;;-5.38;76.24
49072;BME280;52656;52.610;10.236;2023-02-28T06:18:30;102759.66;;;-5.36;75.37
49072;BME280;52656;52.610;10.236;2023-02-28T06:20:56;102755.44;;;-5.34;75.25
49072;BME280;52656;52.610;10.236;2023-02-28T06:23:21;102753.06;;;-5.30;75.19
49072;BME280;52656;52.610;10.236;2023-02-28T06:25:47;102756.72;;;-5.27;75.12
49072;BME280;52656;52.610;10.236;2023-02-28T06:28:12;102759.44;;;-5.24;74.64
49072;BME280;52656;52.610;10.236;2023-02-28T06:30:38;102764.06;;;-5.18;74.05
49072;BME280;52656;52.610;10.236;2023-02-28T06:33:04;102764.31;;;-5.14;74.13
49072;BME280;52656;52.610;10.236;2023-02-28T06:35:29;102767.97;;;-5.10;73.82
49072;BME280;52656;52.610;10.236;2023-02-28T06:37:55;102764.84;;;-5.04;74.14
49072;BME280;52656;52.610;10.236;2023-02-28T06:40:20;102766.78;;;-5.00;74.37
49072;BME280;52656;52.610;10.236;2023-02-28T06:42:46;102762.78;;;-4.95;73.51
49072;BME280;52656;52.610;10.236;2023-02-28T06:45:11;102770.78;;;-4.91;74.11
49072;BME280;52656;52.610;10.236;2023-02-28T06:47:38;102774.53;;;-4.86;73.67
49072;BME280;52656;52.610;10.236;2023-02-28T06:50:04;102776.75;;;-4.77;73.26
49072;BME280;52656;52.610;10.236;2023-02-28T06:52:30;102780.53;;;-4.70;74.09
49072;BME280;52656;52.610;10.236;2023-02-28T06:54:55;102786.03;;;-4.64;73.79
49072;BME280;52656;52.610;10.236;2023-02-28T06:57:29;102781.47;;;-4.53;73.35
49072;BME280;52656;52.610;10.236;2023-02-28T07:00:05;102789.75;;;-4.44;73.56
49072;BME280;52656;52.610;10.236;2023-02-28T07:02:33;102791.94;;;-4.36;73.37
49072;BME280;52656;52.610;10.236;2023-02-28T07:04:58;102790.72;;;-4.26;73.81
49072;BME280;52656;52.610;10.236;2023-02-28T07:07:23;102786.19;;;-4.14;74.39
49072;BME280;52656;52.610;10.236;2023-02-28T07:09:49;102791.31;;;-3.99;74.65
49072;BME280;52656;52.610;10.236;2023-02-28T07:12:14;102796.22;;;-3.87;75.22
49072;BME280;52656;52.610;10.236;2023-02-28T07:14:40;102786.28;;;-3.28;74.90
49072;BME280;52656;52.610;10.236;2023-02-28T07:17:07;102775.84;;;-0.08;65.86
49072;BME280;52656;52.610;10.236;2023-02-28T07:19:32;102771.09;;;1.95;59.31
49072;BME280;52656;52.610;10.236;2023-02-28T07:21:58;102757.81;;;3.23;53.09
49072;BME280;52656;52.610;10.236;2023-02-28T07:24:23;102761.91;;;4.35;50.89
49072;BME280;52656;52.610;10.236;2023-02-28T07:26:50;102754.00;;;5.42;48.30
49072;BME280;52656;52.610;10.236;2023-02-28T07:29:16;102754.09;;;6.25;46.65
49072;BME280;52656;52.610;10.236;2023-02-28T07:31:41;102755.59;;;6.87;46.14
49072;BME280;52656;52.610;10.236;2023-02-28T07:34:06;102753.34;;;7.45;45.63
49072;BME280;52656;52.610;10.236;2023-02-28T07:36:32;102745.63;;;7.94;44.31
49072;BME280;52656;52.610;10.236;2023-02-28T07:38:58;102747.44;;;8.21;43.13
49072;BME280;52656;52.610;10.236;2023-02-28T07:41:23;102748.38;;;8.29;41.84
49072;BME280;52656;52.610;10.236;2023-02-28T07:43:53;102749.09;;;7.85;40.95
49072;BME280;52656;52.610;10.236;2023-02-28T07:46:20;102750.84;;;7.77;43.99
49072;BME280;52656;52.610;10.236;2023-02-28T07:48:46;102741.34;;;8.37;43.93
49072;BME280;52656;52.610;10.236;2023-02-28T07:51:11;102749.28;;;8.62;43.49
49072;BME280;52656;52.610;10.236;2023-02-28T07:53:37;102736.06;;;8.97;43.13
49072;BME280;52656;52.610;10.236;2023-02-28T07:56:03;102739.53;;;9.30;42.45
49072;BME280;52656;52.610;10.236;2023-02-28T07:58:29;102747.53;;;8.76;38.14
49072;BME280;52656;52.610;10.236;2023-02-28T08:00:55;102748.38;;;9.12;42.33
49072;BME280;52656;52.610;10.236;2023-02-28T08:03:22;102748.31;;;8.06;41.67
49072;BME280;52656;52.610;10.236;2023-02-28T08:05:48;102758.66;;;7.57;42.93
49072;BME280;52656;52.610;10.236;2023-02-28T08:08:15;102747.53;;;8.32;42.86
49072;BME280;52656;52.610;10.236;2023-02-28T08:10:41;102751.06;;;8.41;42.67
49072;BME280;52656;52.610;10.236;2023-02-28T08:13:06;102763.97;;;7.60;43.78
49072;BME280;52656;52.610;10.236;2023-02-28T08:15:32;102761.38;;;7.68;42.95
49072;BME280;52656;52.610;10.236;2023-02-28T08:17:57;102765.81;;;7.83;41.83
49072;BME280;52656;52.610;10.236;2023-02-28T08:20:24;102760.72;;;8.38;43.55
49072;BME280;52656;52.610;10.236;2023-02-28T08:22:49;102759.00;;;8.87;43.02
49072;BME280;52656;52.610;10.236;2023-02-28T08:25:15;102762.50;;;8.65;43.06
49072;BME280;52656;52.610;10.236;2023-02-28T08:27:40;102754.50;;;8.19;44.10
49072;BME280;52656;52.610;10.236;2023-02-28T08:30:06;102755.41;;;9.24;42.62
49072;BME280;52656;52.610;10.236;2023-02-28T08:32:32;102752.81;;;8.53;40.26
49072;BME280;52656;52.610;10.236;2023-02-28T08:34:58;102758.63;;;7.47;41.32
49072;BME280;52656;52.610;10.236;2023-02-28T08:37:23;102761.44;;;7.86;41.61
49072;BME280;52656;52.610;10.236;2023-02-28T08:39:49;102774.69;;;8.02;42.42
49072;BME280;52656;52.610;10.236;2023-02-28T08:42:14;102766.84;;;8.26;43.36
49072;BME280;52656;52.610;10.236;2023-02-28T08:44:39;102762.50;;;8.60;43.14
49072;BME280;52656;52.610;10.236;2023-02-28T08:47:05;102762.47;;;9.08;42.27
49072;BME280;52656;52.610;10.236;2023-02-28T08:49:31;102771.25;;;9.30;42.59
49072;BME280;52656;52.610;10.236;2023-02-28T08:51:56;102764.28;;;9.04;42.35
49072;BME280;52656;52.610;10.236;2023-02-28T08:54:22;102770.41;;;9.11;42.65
49072;BME280;52656;52.610;10.236;2023-02-28T08:56:48;102767.78;;;9.15;42.51
49072;BME280;52656;52.610;10.236;2023-02-28T08:59:13;102765.16;;;8.68;42.97
49072;BME280;52656;52.610;10.236;2023-02-28T09:01:39;102766.84;;;9.36;42.49
49072;BME280;52656;52.610;10.236;2023-02-28T09:04:06;102767.66;;;9.57;41.50
49072;BME280;52656;52.610;10.236;2023-02-28T09:06:34;102772.06;;;9.61;41.58
49072;BME280;52656;52.610;10.236;2023-02-28T09:08:59;102770.25;;;9.77;40.31
49072;BME280;52656;52.610;10.236;2023-02-28T09:11:27;102769.50;;;9.30;41.04
49072;BME280;52656;52.610;10.236;2023-02-28T09:13:52;102771.25;;;9.39;41.36
49072;BME280;52656;52.610;10.236;2023-02-28T09:16:18;102774.63;;;9.88;41.14
49072;BME280;52656;52.610;10.236;2023-02-28T09:18:44;102781.81;;;9.43;41.37
49072;BME280;52656;52.610;10.236;2023-02-28T09:21:11;102777.25;;;9.98;40.45
49072;BME280;52656;52.610;10.236;2023-02-28T09:23:40;102776.09;;;10.44;40.67
49072;BME280;52656;52.610;10.236;2023-02-28T09:26:06;102769.84;;;10.53;40.58
49072;BME280;52656;52.610;10.236;2023-02-28T09:28:32;102773.63;;;10.14;40.77
49072;BME280;52656;52.610;10.236;2023-02-28T09:30:57;102777.25;;;9.98;39.82
49072;BME280;52656;52.610;10.236;2023-02-28T09:33:24;102771.91;;;10.10;39.98
49072;BME280;52656;52.610;10.236;2023-02-28T09:35:49;102774.66;;;9.87;39.48
49072;BME280;52656;52.610;10.236;2023-02-28T09:38:16;102772.56;;;10.46;40.58
49072;BME280;52656;52.610;10.236;2023-02-28T09:41:12;102766.53;;;10.19;39.27
49072;BME280;52656;52.610;10.236;2023-02-28T09:43:43;102775.50;;;9.93;39.39
49072;BME280;52656;52.610;10.236;2023-02-28T09:46:21;102773.81;;;9.62;40.59
49072;BME280;52656;52.610;10.236;2023-02-28T09:48:51;102774.72;;;9.58;39.71
49072;BME280;52656;52.610;10.236;2023-02-28T09:51:39;102775.66;;;9.34;39.22
49072;BME280;52656;52.610;10.236;2023-02-28T09:54:05;102776.56;;;8.39;40.60
49072;BME280;52656;52.610;10.236;2023-02-28T09:56:33;102772.88;;;9.80;38.81
49072;BME280;52656;52.610;10.236;2023-02-28T09:59:25;102781.69;;;7.94;41.58
49072;BME280;52656;52.610;10.236;2023-02-28T10:02:09;102779.16;;;8.23;41.48
49072;BME280;52656;52.610;10.236;2023-02-28T10:10:24;102774.56;;;7.76;41.60
49072;BME280;52656;52.610;10.236;2023-02-28T10:12:53;102778.69;;;7.25;41.78
49072;BME280;52656;52.610;10.236;2023-02-28T10:15:23;102769.41;;;8.12;41.02
49072;BME280;52656;52.610;10.236;2023-02-28T10:17:53;102773.09;;;8.82;38.50
49072;BME280;52656;52.610;10.236;2023-02-28T10:20:21;102771.31;;;8.85;38.99
49072;BME280;52656;52.610;10.236;2023-02-28T10:22:58;102763.34;;;9.16;38.65
49072;BME280;52656;52.610;10.236;2023-02-28T10:25:27;102772.22;;;8.72;38.65
49072;BME280;52656;52.610;10.236;2023-02-28T10:27:55;102771.31;;;8.56;37.89
49072;BME280;52656;52.610;10.236;2023-02-28T10:30:24;102796.06;;;6.95;40.18
49072;BME280;52656;52.610;10.236;2023-02-28T10:32:51;102790.34;;;7.66;39.29
49072;BME280;52656;52.610;10.236;2023-02-28T10:35:23;102797.94;;;7.13;39.21
49072;BME280;52656;52.610;10.236;2023-02-28T10:37:59;102792.97;;;7.59;38.54
49072;BME280;52656;52.610;10.236;2023-02-28T10:45:29;102784.50;;;8.46;38.95
49072;BME280;52656;52.610;10.236;2023-02-28T10:53:39;102772.19;;;8.92;36.38
49072;BME280;52656;52.610;10.236;2023-02-28T11:01:50;102771.91;;;7.68;38.35
49072;BME280;52656;52.610;10.236;2023-02-28T11:07:02;102765.72;;;7.60;39.40
49072;BME280;52656;52.610;10.236;2023-02-28T11:09:33;102767.16;;;7.06;40.79
49072;BME280;52656;52.610;10.236;2023-02-28T11:12:02;102764.56;;;7.13;40.71
49072;BME280;52656;52.610;10.236;2023-02-28T11:14:31;102768.66;;;6.73;40.04
49072;BME280;52656;52.610;10.236;2023-02-28T11:17:11;102762.06;;;7.33;39.68
49072;BME280;52656;52.610;10.236;2023-02-28T11:19:41;102758.69;;;7.60;39.51
49072;BME280;52656;52.610;10.236;2023-02-28T11:22:09;102754.91;;;7.17;39.54
49072;BME280;52656;52.610;10.236;2023-02-28T11:24:44;102753.94;;;7.01;40.34
49072;BME280;52656;52.610;10.236;2023-02-28T11:29:57;102734.22;;;7.95;38.29
49072;BME280;52656;52.610;10.236;2023-02-28T11:32:26;102737.75;;;8.12;38.14
49072;BME280;52656;52.610;10.236;2023-02-28T11:35:15;102742.13;;;7.97;37.58
49072;BME280;52656;52.610;10.236;2023-02-28T11:37:42;102741.25;;;8.05;38.09
49072;BME280;52656;52.610;10.236;2023-02-28T11:40:15;102743.81;;;7.81;38.74
49072;BME280;52656;52.610;10.236;2023-02-28T11:42:50;102740.16;;;7.45;38.25
49072;BME280;52656;52.610;10.236;2023-02-28T11:48:22;102743.47;;;6.13;41.08
49072;BME280;52656;52.610;10.236;2023-02-28T11:50:52;102734.28;;;6.61;39.82
49072;BME280;52656;52.610;10.236;2023-02-28T11:53:50;102740.13;;;6.31;40.42
49072;BME280;52656;52.610;10.236;2023-02-28T11:56:31;102744.28;;;6.07;40.86
49072;BME280;52656;52.610;10.236;2023-02-28T12:08:08;102738.38;;;4.93;42.27
49072;BME280;52656;52.610;10.236;2023-02-28T12:10:26;102730.72;;;5.08;41.95
49072;BME280;52656;52.610;10.236;2023-02-28T12:13:15;102723.63;;;5.65;41.27
49072;BME280;52656;52.610;10.236;2023-02-28T12:24:43;102718.91;;;5.40;41.54
49072;BME280;52656;52.610;10.236;2023-02-28T12:27:14;102709.56;;;5.61;41.22
49072;BME280;52656;52.610;10.236;2023-02-28T12:30:04;102715.78;;;5.70;41.50
49072;BME280;52656;52.610;10.236;2023-02-28T12:32:36;102706.09;;;5.67;40.94
49072;BME280;52656;52.610;10.236;2023-02-28T12:35:04;102704.22;;;5.55;41.14
49072;BME280;52656;52.610;10.236;2023-02-28T12:40:14;102682.03;;;5.33;41.69
49072;BME280;52656;52.610;10.236;2023-02-28T12:42:45;102686.75;;;5.59;40.74
49072;BME280;52656;52.610;10.236;2023-02-28T12:45:18;102689.22;;;5.48;39.76
49072;BME280;52656;52.610;10.236;2023-02-28T12:47:45;102681.28;;;5.41;39.45
49072;BME280;52656;52.610;10.236;2023-02-28T12:50:14;102681.63;;;5.03;39.75
49072;BME280;52656;52.610;10.236;2023-02-28T13:09:26;102648.09;;;5.53;40.16
49072;BME280;52656;52.610;10.236;2023-02-28T13:11:53;102643.38;;;5.23;39.63
49072;BME280;52656;52.610;10.236;2023-02-28T13:14:26;102634.28;;;5.70;39.51
49072;BME280;52656;52.610;10.236;2023-02-28T13:19:29;102636.13;;;5.80;39.16
49072;BME280;52656;52.610;10.236;2023-02-28T13:21:56;102635.25;;;5.79;39.39
49072;BME280;52656;52.610;10.236;2023-02-28T13:24:42;102636.19;;;5.83;39.24
49072;BME280;52656;52.610;10.236;2023-02-28T13:29:34;102643.88;;;5.66;39.74
49072;BME280;52656;52.610;10.236;2023-02-28T13:34:33;102636.91;;;5.70;40.40
49072;BME280;52656;52.610;10.236;2023-02-28T13:47:40;102628.50;;;6.06;39.57
49072;BME280;52656;52.610;10.236;2023-02-28T13:50:27;102631.13;;;6.06;39.18
49072;BME280;52656;52.610;10.236;2023-02-28T13:58:34;102637.06;;;5.85;39.78
49072;BME280;52656;52.610;10.236;2023-02-28T14:06:54;102627.72;;;6.14;39.81
49072;BME280;52656;52.610;10.236;2023-02-28T14:09:29;102630.03;;;5.85;40.08
49072;BME280;52656;52.610;10.236;2023-02-28T14:11:57;102624.13;;;6.06;39.82
49072;BME280;52656;52.610;10.236;2023-02-28T14:17:01;102622.06;;;5.75;40.16
49072;BME280;52656;52.610;10.236;2023-02-28T14:19:30;102624.69;;;5.76;40.04
49072;BME280;52656;52.610;10.236;2023-02-28T14:25:11;102625.28;;;5.49;40.56
49072;BME280;52656;52.610;10.236;2023-02-28T14:30:57;102625.41;;;5.61;40.58
49072;BME280;52656;52.610;10.236;2023-02-28T14:33:27;102629.41;;;5.27;41.03
49072;BME280;52656;52.610;10.236;2023-02-28T14:36:44;102621.38;;;5.17;41.29
49072;BME280;52656;52.610;10.236;2023-02-28T14:38:59;102622.53;;;5.38;40.93
49072;BME280;52656;52.610;10.236;2023-02-28T14:41:34;102633.91;;;5.37;41.23
49072;BME280;52656;52.610;10.236;2023-02-28T14:44:20;102629.59;;;5.41;41.33
49072;BME280;52656;52.610;10.236;2023-02-28T14:46:48;102626.88;;;5.35;41.65
49072;BME280;52656;52.610;10.236;2023-02-28T14:49:32;102628.75;;;5.45;41.26
49072;BME280;52656;52.610;10.236;2023-02-28T14:52:21;102629.59;;;5.44;41.66
49072;BME280;52656;52.610;10.236;2023-02-28T14:55:03;102621.38;;;5.14;41.89
49072;BME280;52656;52.610;10.236;2023-02-28T14:57:31;102625.38;;;4.87;42.43
49072;BME280;52656;52.610;10.236;2023-02-28T15:00:22;102621.13;;;4.95;42.21
49072;BME280;52656;52.610;10.236;2023-02-28T15:02:48;102615.88;;;4.97;42.33
49072;BME280;52656;52.610;10.236;2023-02-28T15:07:38;102612.94;;;5.44;41.62
49072;BME280;52656;52.610;10.236;2023-02-28T15:10:20;102614.81;;;5.54;41.28
49072;BME280;52656;52.610;10.236;2023-02-28T15:15:18;102603.31;;;5.44;41.09
49072;BME280;52656;52.610;10.236;2023-02-28T15:17:48;102614.69;;;5.42;41.24
49072;BME280;52656;52.610;10.236;2023-02-28T15:20:15;102608.63;;;5.47;41.30
49072;BME280;52656;52.610;10.236;2023-02-28T15:22:42;102614.31;;;5.09;41.99